sensor_id;sensor_type;location;lat;lon;timestamp;pressure;altitude;pressure_sealevel;temperature
68446;BMP280;35789;48.414;12.768;2023-05-10T00:00:00;96350.0;;;
68446;BMP280;35789;48.414;12.768;2023-05-10T00:05:01;96350.0;;;
68446;BMP280;35789;48.414;12.768;2023-05-10T00:10:00;96350.0;;;
68446;BMP280;35789;48.414;12.768;2023-05-10T00:15:00;96340.0;;;
68446;BMP280;35789;48.414;12.768;2023-05-10T00:20:00;96340.0;;;
68446;BMP280;35789;48.414;12.768;2023-05-10T00:25:00;96350.0;;;
68446;BMP280;35789;48.414;12.768;2023-05-10T00:30:00;96340.0;;;
68446;BMP280;35789;48.414;12.768;2023-05-10T00:35:00;96350.0;;;
68446;BMP280;35789;48.414;12.768;2023-05-10T00:40:00;96350.0;;;
68446;BMP280;35789;48.414;12.768;2023-05-10T00:45:00;96350.0;;;
68446;BMP280;35789;48.414;12.768;2023-05-10T00:50:01;96350.0;;;
68446;BMP280;35789;48.414;12.768;2023-05-10T00:55:01;96350.0;;;
68446;BMP280;35789;48.414;12.768;2023-05-10T01:00:01;96350.0;;;
68446;BMP280;35789;48.414;12.768;2023-05-10T01:05:02;96350.0;;;
68446;BMP280;35789;48.414;12.768;2023-05-10T01:10:00;96340.0;;;
68446;BMP280;35789;48.414;12.768;2023-05-10T01:15:01;96340.0;;;
68446;BMP280;35789;48.414;12.768;2023-05-10T01:20:01;96350.0;;;
68446;BMP280;35789;48.414;12.768;2023-05-10T01:25:23;96350.0;;;
68446;BMP280;35789;48.414;12.768;2023-05-10T01:30:08;96350.0;;;
68446;BMP280;35789;48.414;12.768;2023-05-10T01:35:04;96350.0;;;
68446;BMP280;35789;48.414;12.768;2023-05-10T01:40:17;96350.0;;;
68446;BMP280;35789;48.414;12.768;2023-05-10T01:45:18;96350.0;;;
68446;BMP280;35789;48.414;12.768;2023-05-10T01:50:05;96350.0;;;
68446;BMP280;35789;48.414;12.768;2023-05-10T01:55:05;96360.0;;;
68446;BMP280;35789;48.414;12.768;2023-05-10T02:05:02;96360.0;;;
68446;BMP280;35789;48.414;12.768;2023-05-10T02:10:02;96360.0;;;
68446;BMP280;35789;48.414;12.768;2023-05-10T02:15:04;96360.0;;;
68446;BMP280;35789;48.414;12.768;2023-05-10T02:20:01;96370.0;;;
68446;BMP280;35789;48.414;12.768;2023-05-10T02:25:01;96370.0;;;
68446;BMP280;35789;48.414;12.768;2023-05-10T02:30:01;96370.0;;;
68446;BMP280;35789;48.414;12.768;2023-05-10T02:35:01;96380.0;;;
68446;BMP280;35789;48.414;12.768;2023-05-10T02:40:02;96370.0;;;
68446;BMP280;35789;48.414;12.768;2023-05-10T02:45:05;96370.0;;;
68446;BMP280;35789;48.414;12.768;2023-05-10T02:50:00;96370.0;;;
68446;BMP280;35789;48.414;12.768;2023-05-10T02:55:02;96360.0;;;
68446;BMP280;35789;48.414;12.768;2023-05-10T03:00:01;96370.0;;;
68446;BMP280;35789;48.414;12.768;2023-05-10T03:05:00;96360.0;;;
68446;BMP280;35789;48.414;12.768;2023-05-10T03:10:01;96370.0;;;
68446;BMP280;35789;48.414;12.768;2023-05-10T03:15:10;96380.0;;;
68446;BMP280;35789;48.414;12.768;2023-05-10T03:20:06;96370.0;;;
68446;BMP280;35789;48.414;12.768;2023-05-10T03:25:06;96380.0;;;
68446;BMP280;35789;48.414;12.768;2023-05-10T03:30:02;96380.0;;;
68446;BMP280;35789;48.414;12.768;2023-05-10T03:35:00;96380.0;;;
68446;BMP280;35789;48.414;12.768;2023-05-10T03:40:01;96390.0;;;
68446;BMP280;35789;48.414;12.768;2023-05-10T03:45:00;96390.0;;;
68446;BMP280;35789;48.414;12.768;2023-05-10T03:50:00;96390.0;;;
68446;BMP280;35789;48.414;12.768;2023-05-10T03:55:00;96390.0;;;
68446;BMP280;35789;48.414;12.768;2023-05-10T04:00:01;96390.0;;;
68446;BMP280;35789;48.414;12.768;2023-05-10T04:05:00;96390.0;;;
68446;BMP280;35789;48.414;12.768;2023-05-10T04:10:00;96390.0;;;
68446;BMP280;35789;48.414;12.768;2023-05-10T04:15:00;96390.0;;;
68446;BMP280;35789;48.414;12.768;2023-05-10T04:20:00;96390.0;;;
68446;BMP280;35789;48.414;12.768;2023-05-10T04:25:00;96390.0;;;
68446;BMP280;35789;48.414;12.768;2023-05-10T04:30:01;96400.0;;;
68446;BMP280;35789;48.414;12.768;2023-05-10T04:35:00;96410.0;;;
68446;BMP280;35789;48.414;12.768;2023-05-10T04:40:00;96400.0;;;
68446;BMP280;35789;48.414;12.768;2023-05-10T04:45:00;96400.0;;;
68446;BMP280;35789;48.414;12.768;2023-05-10T04:50:00;96400.0;;;
68446;BMP280;35789;48.414;12.768;2023-05-10T04:55:00;96400.0;;;
68446;BMP280;35789;48.414;12.768;2023-05-10T05:00:00;96410.0;;;
68446;BMP280;35789;48.414;12.768;2023-05-10T05:05:00;96410.0;;;
68446;BMP280;35789;48.414;12.768;2023-05-10T05:10:00;96410.0;;;
68446;BMP280;35789;48.414;12.768;2023-05-10T05:15:01;96410.0;;;
68446;BMP280;35789;48.414;12.768;2023-05-10T05:20:00;96410.0;;;
68446;BMP280;35789;48.414;12.768;2023-05-10T05:25:00;96420.0;;;
68446;BMP280;35789;48.414;12.768;2023-05-10T05:30:00;96420.0;;;
68446;BMP280;35789;48.414;12.768;2023-05-10T05:35:00;96420.0;;;
68446;BMP280;35789;48.414;12.768;2023-05-10T05:40:01;96420.0;;;
68446;BMP280;35789;48.414;12.768;2023-05-10T05:45:00;96430.0;;;
68446;BMP280;35789;48.414;12.768;2023-05-10T05:50:00;96420.0;;;
68446;BMP280;35789;48.414;12.768;2023-05-10T05:55:00;96430.0;;;
68446;BMP280;35789;48.414;12.768;2023-05-10T06:00:00;96430.0;;;
68446;BMP280;35789;48.414;12.768;2023-05-10T06:05:00;96430.0;;;
68446;BMP280;35789;48.414;12.768;2023-05-10T06:10:00;96430.0;;;
68446;BMP280;35789;48.414;12.768;2023-05-10T06:15:00;96440.0;;;
68446;BMP280;35789;48.414;12.768;2023-05-10T06:20:00;96450.0;;;
68446;BMP280;35789;48.414;12.768;2023-05-10T06:25:00;96450.0;;;
68446;BMP280;35789;48.414;12.768;2023-05-10T06:30:00;96450.0;;;
68446;BMP280;35789;48.414;12.768;2023-05-10T06:35:00;96460.0;;;
68446;BMP280;35789;48.414;12.768;2023-05-10T06:40:00;96460.0;;;
68446;BMP280;35789;48.414;12.768;2023-05-10T06:45:00;96450.0;;;
68446;BMP280;35789;48.414;12.768;2023-05-10T06:50:00;96460.0;;;
68446;BMP280;35789;48.414;12.768;2023-05-10T06:55:01;96450.0;;;
68446;BMP280;35789;48.414;12.768;2023-05-10T07:00:01;96460.0;;;
68446;BMP280;35789;48.414;12.768;2023-05-10T07:05:01;96460.0;;;
68446;BMP280;35789;48.414;12.768;2023-05-10T07:10:00;96460.0;;;
68446;BMP280;35789;48.414;12.768;2023-05-10T07:15:00;96470.0;;;
68446;BMP280;35789;48.414;12.768;2023-05-10T07:20:00;96470.0;;;
68446;BMP280;35789;48.414;12.768;2023-05-10T07:25:00;96480.0;;;
68446;BMP280;35789;48.414;12.768;2023-05-10T07:30:00;96480.0;;;
68446;BMP280;35789;48.414;12.768;2023-05-10T07:35:00;96490.0;;;
68446;BMP280;35789;48.414;12.768;2023-05-10T07:40:00;96500.0;;;
68446;BMP280;35789;48.414;12.768;2023-05-10T07:45:00;96510.0;;;
68446;BMP280;35789;48.414;12.768;2023-05-10T07:50:00;96510.0;;;
68446;BMP280;35789;48.414;12.768;2023-05-10T07:55:00;96510.0;;;
68446;BMP280;35789;48.414;12.768;2023-05-10T08:00:01;96510.0;;;
68446;BMP280;35789;48.414;12.768;2023-05-10T08:05:00;96520.0;;;
68446;BMP280;35789;48.414;12.768;2023-05-10T08:10:00;96520.0;;;
68446;BMP280;35789;48.414;12.768;2023-05-10T08:15:00;96530.0;;;
68446;BMP280;35789;48.414;12.768;2023-05-10T08:20:00;96530.0;;;
68446;BMP280;35789;48.414;12.768;2023-05-10T08:25:00;96540.0;;;
68446;BMP280;35789;48.414;12.768;2023-05-10T08:30:00;96560.0;;;
68446;BMP280;35789;48.414;12.768;2023-05-10T08:35:00;96560.0;;;
68446;BMP280;35789;48.414;12.768;2023-05-10T08:40:00;96570.0;;;
68446;BMP280;35789;48.414;12.768;2023-05-10T08:45:02;96570.0;;;
68446;BMP280;35789;48.414;12.768;2023-05-10T08:50:02;96580.0;;;
68446;BMP280;35789;48.414;12.768;2023-05-10T08:55:00;96580.0;;;
68446;BMP280;35789;48.414;12.768;2023-05-10T09:00:01;96580.0;;;
68446;BMP280;35789;48.414;12.768;2023-05-10T09:05:00;96590.0;;;
68446;BMP280;35789;48.414;12.768;2023-05-10T09:10:00;96590.0;;;
68446;BMP280;35789;48.414;12.768;2023-05-10T09:15:02;96600.0;;;
68446;BMP280;35789;48.414;12.768;2023-05-10T09:20:03;96600.0;;;
68446;BMP280;35789;48.414;12.768;2023-05-10T09:25:04;96600.0;;;
68446;BMP280;35789;48.414;12.768;2023-05-10T09:30:01;96610.0;;;
68446;BMP280;35789;48.414;12.768;2023-05-10T09:35:05;96610.0;;;
68446;BMP280;35789;48.414;12.768;2023-05-10T09:40:04;96610.0;;;
68446;BMP280;35789;48.414;12.768;2023-05-10T09:45:02;96610.0;;;
68446;BMP280;35789;48.414;12.768;2023-05-10T09:50:01;96600.0;;;
68446;BMP280;35789;48.414;12.768;2023-05-10T09:55:00;96600.0;;;
68446;BMP280;35789;48.414;12.768;2023-05-10T10:00:01;96600.0;;;
68446;BMP280;35789;48.414;12.768;2023-05-10T10:05:01;96590.0;;;
68446;BMP280;35789;48.414;12.768;2023-05-10T10:10:00;96590.0;;;
68446;BMP280;35789;48.414;12.768;2023-05-10T10:15:00;96590.0;;;
68446;BMP280;35789;48.414;12.768;2023-05-10T10:20:02;96590.0;;;
68446;BMP280;35789;48.414;12.768;2023-05-10T10:25:00;96580.0;;;
68446;BMP280;35789;48.414;12.768;2023-05-10T10:30:11;96580.0;;;
68446;BMP280;35789;48.414;12.768;2023-05-10T10:35:00;96580.0;;;
68446;BMP280;35789;48.414;12.768;2023-05-10T10:40:00;96580.0;;;
68446;BMP280;35789;48.414;12.768;2023-05-10T10:45:12;96580.0;;;
68446;BMP280;35789;48.414;12.768;2023-05-10T10:50:06;96570.0;;;
68446;BMP280;35789;48.414;12.768;2023-05-10T10:55:03;96570.0;;;
68446;BMP280;35789;48.414;12.768;2023-05-10T11:00:18;96550.0;;;
68446;BMP280;35789;48.414;12.768;2023-05-10T11:10:04;96550.0;;;
68446;BMP280;35789;48.414;12.768;2023-05-10T11:15:01;96550.0;;;
68446;BMP280;35789;48.414;12.768;2023-05-10T11:20:09;96550.0;;;
68446;BMP280;35789;48.414;12.768;2023-05-10T11:25:00;96560.0;;;
68446;BMP280;35789;48.414;12.768;2023-05-10T11:30:00;96570.0;;;
68446;BMP280;35789;48.414;12.768;2023-05-10T11:35:07;96580.0;;;
68446;BMP280;35789;48.414;12.768;2023-05-10T11:40:00;96590.0;;;
68446;BMP280;35789;48.414;12.768;2023-05-10T11:45:01;96590.0;;;
68446;BMP280;35789;48.414;12.768;2023-05-10T11:50:00;96590.0;;;
68446;BMP280;35789;48.414;12.768;2023-05-10T11:55:00;96590.0;;;
68446;BMP280;35789;48.414;12.768;2023-05-10T12:00:00;96590.0;;;
68446;BMP280;35789;48.414;12.768;2023-05-10T12:05:01;96600.0;;;
68446;BMP280;35789;48.414;12.768;2023-05-10T12:10:06;96600.0;;;
68446;BMP280;35789;48.414;12.768;2023-05-10T12:15:01;96600.0;;;
68446;BMP280;35789;48.414;12.768;2023-05-10T12:20:14;96600.0;;;
68446;BMP280;35789;48.414;12.768;2023-05-10T12:25:00;96600.0;;;
68446;BMP280;35789;48.414;12.768;2023-05-10T12:30:01;96600.0;;;
68446;BMP280;35789;48.414;12.768;2023-05-10T12:35:00;96610.0;;;
68446;BMP280;35789;48.414;12.768;2023-05-10T12:40:00;96610.0;;;
68446;BMP280;35789;48.414;12.768;2023-05-10T12:45:00;96620.0;;;
68446;BMP280;35789;48.414;12.768;2023-05-10T12:50:02;96620.0;;;
68446;BMP280;35789;48.414;12.768;2023-05-10T12:55:01;96620.0;;;
68446;BMP280;35789;48.414;12.768;2023-05-10T13:00:01;96620.0;;;
68446;BMP280;35789;48.414;12.768;2023-05-10T13:05:00;96610.0;;;
68446;BMP280;35789;48.414;12.768;2023-05-10T13:10:00;96610.0;;;
68446;BMP280;35789;48.414;12.768;2023-05-10T13:15:00;96620.0;;;
68446;BMP280;35789;48.414;12.768;2023-05-10T13:20:00;96620.0;;;
68446;BMP280;35789;48.414;12.768;2023-05-10T13:25:00;96620.0;;;
68446;BMP280;35789;48.414;12.768;2023-05-10T13:30:01;96610.0;;;
68446;BMP280;35789;48.414;12.768;2023-05-10T13:35:00;96610.0;;;
68446;BMP280;35789;48.414;12.768;2023-05-10T13:40:00;96600.0;;;
68446;BMP280;35789;48.414;12.768;2023-05-10T13:45:00;96600.0;;;
68446;BMP280;35789;48.414;12.768;2023-05-10T13:50:00;96600.0;;;
68446;BMP280;35789;48.414;12.768;2023-05-10T13:55:00;96600.0;;;
68446;BMP280;35789;48.414;12.768;2023-05-10T14:00:00;96600.0;;;
68446;BMP280;35789;48.414;12.768;2023-05-10T14:05:00;96600.0;;;
68446;BMP280;35789;48.414;12.768;2023-05-10T14:10:00;96590.0;;;
68446;BMP280;35789;48.414;12.768;2023-05-10T14:15:00;96590.0;;;
68446;BMP280;35789;48.414;12.768;2023-05-10T14:20:00;96600.0;;;
68446;BMP280;35789;48.414;12.768;2023-05-10T14:25:00;96590.0;;;
68446;BMP280;35789;48.414;12.768;2023-05-10T14:30:00;96590.0;;;
68446;BMP280;35789;48.414;12.768;2023-05-10T14:35:00;96590.0;;;
68446;BMP280;35789;48.414;12.768;2023-05-10T14:40:00;96590.0;;;
68446;BMP280;35789;48.414;12.768;2023-05-10T14:45:00;96590.0;;;
68446;BMP280;35789;48.414;12.768;2023-05-10T14:50:00;96590.0;;;
68446;BMP280;35789;48.414;12.768;2023-05-10T14:55:00;96590.0;;;
68446;BMP280;35789;48.414;12.768;2023-05-10T15:00:00;96600.0;;;
68446;BMP280;35789;48.414;12.768;2023-05-10T15:05:00;96600.0;;;
68446;BMP280;35789;48.414;12.768;2023-05-10T15:10:00;96600.0;;;
68446;BMP280;35789;48.414;12.768;2023-05-10T15:15:00;96610.0;;;
68446;BMP280;35789;48.414;12.768;2023-05-10T15:20:00;96620.0;;;
68446;BMP280;35789;48.414;12.768;2023-05-10T15:25:00;96620.0;;;
68446;BMP280;35789;48.414;12.768;2023-05-10T15:30:00;96620.0;;;
68446;BMP280;35789;48.414;12.768;2023-05-10T15:35:00;96620.0;;;
68446;BMP280;35789;48.414;12.768;2023-05-10T15:40:00;96620.0;;;
68446;BMP280;35789;48.414;12.768;2023-05-10T15:45:00;96620.0;;;
68446;BMP280;35789;48.414;12.768;2023-05-10T15:50:00;96620.0;;;
68446;BMP280;35789;48.414;12.768;2023-05-10T15:55:00;96620.0;;;
68446;BMP280;35789;48.414;12.768;2023-05-10T16:00:00;96630.0;;;
68446;BMP280;35789;48.414;12.768;2023-05-10T16:05:00;96630.0;;;
68446;BMP280;35789;48.414;12.768;2023-05-10T16:10:00;96630.0;;;
68446;BMP280;35789;48.414;12.768;2023-05-10T16:15:00;96640.0;;;
68446;BMP280;35789;48.414;12.768;2023-05-10T16:20:00;96650.0;;;
68446;BMP280;35789;48.414;12.768;2023-05-10T16:25:00;96650.0;;;
68446;BMP280;35789;48.414;12.768;2023-05-10T16:30:00;96650.0;;;
68446;BMP280;35789;48.414;12.768;2023-05-10T16:35:00;96650.0;;;
68446;BMP280;35789;48.414;12.768;2023-05-10T16:40:00;96650.0;;;
68446;BMP280;35789;48.414;12.768;2023-05-10T16:45:00;96660.0;;;
68446;BMP280;35789;48.414;12.768;2023-05-10T16:50:01;96660.0;;;
68446;BMP280;35789;48.414;12.768;2023-05-10T16:55:01;96660.0;;;
68446;BMP280;35789;48.414;12.768;2023-05-10T17:00:00;96660.0;;;
68446;BMP280;35789;48.414;12.768;2023-05-10T17:05:00;96660.0;;;
68446;BMP280;35789;48.414;12.768;2023-05-10T17:10:00;96660.0;;;
68446;BMP280;35789;48.414;12.768;2023-05-10T17:15:00;96670.0;;;
68446;BMP280;35789;48.414;12.768;2023-05-10T17:20:00;96670.0;;;
68446;BMP280;35789;48.414;12.768;2023-05-10T17:25:00;96680.0;;;
68446;BMP280;35789;48.414;12.768;2023-05-10T17:30:00;96690.0;;;
68446;BMP280;35789;48.414;12.768;2023-05-10T17:35:01;96690.0;;;
68446;BMP280;35789;48.414;12.768;2023-05-10T17:40:00;96690.0;;;
68446;BMP280;35789;48.414;12.768;2023-05-10T17:45:03;96690.0;;;
68446;BMP280;35789;48.414;12.768;2023-05-10T17:50:00;96690.0;;;
68446;BMP280;35789;48.414;12.768;2023-05-10T17:55:00;96700.0;;;
68446;BMP280;35789;48.414;12.768;2023-05-10T18:00:00;96700.0;;;
68446;BMP280;35789;48.414;12.768;2023-05-10T18:05:00;96700.0;;;
68446;BMP280;35789;48.414;12.768;2023-05-10T18:10:03;96700.0;;;
68446;BMP280;35789;48.414;12.768;2023-05-10T18:15:00;96710.0;;;
68446;BMP280;35789;48.414;12.768;2023-05-10T18:20:00;96720.0;;;
68446;BMP280;35789;48.414;12.768;2023-05-10T18:25:01;96720.0;;;
68446;BMP280;35789;48.414;12.768;2023-05-10T18:30:00;96720.0;;;
68446;BMP280;35789;48.414;12.768;2023-05-10T18:35:00;96720.0;;;
68446;BMP280;35789;48.414;12.768;2023-05-10T18:40:00;96720.0;;;
68446;BMP280;35789;48.414;12.768;2023-05-10T18:45:00;96730.0;;;
68446;BMP280;35789;48.414;12.768;2023-05-10T18:50:01;96730.0;;;
68446;BMP280;35789;48.414;12.768;2023-05-10T18:55:00;96740.0;;;
68446;BMP280;35789;48.414;12.768;2023-05-10T19:00:00;96750.0;;;
68446;BMP280;35789;48.414;12.768;2023-05-10T19:05:00;96750.0;;;
68446;BMP280;35789;48.414;12.768;2023-05-10T19:10:01;96750.0;;;
68446;BMP280;35789;48.414;12.768;2023-05-10T19:15:00;96760.0;;;
68446;BMP280;35789;48.414;12.768;2023-05-10T19:20:00;96760.0;;;
68446;BMP280;35789;48.414;12.768;2023-05-10T19:25:00;96760.0;;;
68446;BMP280;35789;48.414;12.768;2023-05-10T19:30:00;96760.0;;;
68446;BMP280;35789;48.414;12.768;2023-05-10T19:35:01;96770.0;;;
68446;BMP280;35789;48.414;12.768;2023-05-10T19:40:00;96770.0;;;
68446;BMP280;35789;48.414;12.768;2023-05-10T19:45:00;96770.0;;;
68446;BMP280;35789;48.414;12.768;2023-05-10T19:50:00;96780.0;;;
68446;BMP280;35789;48.414;12.768;2023-05-10T19:55:00;96780.0;;;
68446;BMP280;35789;48.414;12.768;2023-05-10T20:00:00;96780.0;;;
68446;BMP280;35789;48.414;12.768;2023-05-10T20:05:00;96780.0;;;
68446;BMP280;35789;48.414;12.768;2023-05-10T20:10:00;96780.0;;;
68446;BMP280;35789;48.414;12.768;2023-05-10T20:15:00;96780.0;;;
68446;BMP280;35789;48.414;12.768;2023-05-10T20:20:01;96780.0;;;
68446;BMP280;35789;48.414;12.768;2023-05-10T20:25:00;96780.0;;;
68446;BMP280;35789;48.414;12.768;2023-05-10T20:30:00;96780.0;;;
68446;BMP280;35789;48.414;12.768;2023-05-10T20:35:00;96790.0;;;
68446;BMP280;35789;48.414;12.768;2023-05-10T20:40:00;96780.0;;;
68446;BMP280;35789;48.414;12.768;2023-05-10T20:45:00;96780.0;;;
68446;BMP280;35789;48.414;12.768;2023-05-10T20:50:00;96790.0;;;
68446;BMP280;35789;48.414;12.768;2023-05-10T20:55:00;96790.0;;;
68446;BMP280;35789;48.414;12.768;2023-05-10T21:00:01;96790.0;;;
68446;BMP280;35789;48.414;12.768;2023-05-10T21:05:00;96780.0;;;
68446;BMP280;35789;48.414;12.768;2023-05-10T21:10:00;96780.0;;;
68446;BMP280;35789;48.414;12.768;2023-05-10T21:15:01;96780.0;;;
68446;BMP280;35789;48.414;12.768;2023-05-10T21:20:00;96780.0;;;
68446;BMP280;35789;48.414;12.768;2023-05-10T21:25:00;96780.0;;;
68446;BMP280;35789;48.414;12.768;2023-05-10T21:30:00;96780.0;;;
68446;BMP280;35789;48.414;12.768;2023-05-10T21:35:00;96770.0;;;
68446;BMP280;35789;48.414;12.768;2023-05-10T21:40:00;96770.0;;;
68446;BMP280;35789;48.414;12.768;2023-05-10T21:45:00;96770.0;;;
68446;BMP280;35789;48.414;12.768;2023-05-10T21:50:00;96770.0;;;
68446;BMP280;35789;48.414;12.768;2023-05-10T21:55:01;96770.0;;;
68446;BMP280;35789;48.414;12.768;2023-05-10T22:00:00;96770.0;;;
68446;BMP280;35789;48.414;12.768;2023-05-10T22:05:01;96770.0;;;
68446;BMP280;35789;48.414;12.768;2023-05-10T22:10:00;96780.0;;;
68446;BMP280;35789;48.414;12.768;2023-05-10T22:15:01;96780.0;;;
68446;BMP280;35789;48.414;12.768;2023-05-10T22:20:00;96780.0;;;
68446;BMP280;35789;48.414;12.768;2023-05-10T22:25:00;96780.0;;;
68446;BMP280;35789;48.414;12.768;2023-05-10T22:30:01;96790.0;;;
68446;BMP280;35789;48.414;12.768;2023-05-10T22:35:00;96780.0;;;
68446;BMP280;35789;48.414;12.768;2023-05-10T22:40:00;96780.0;;;
68446;BMP280;35789;48.414;12.768;2023-05-10T22:45:00;96780.0;;;
68446;BMP280;35789;48.414;12.768;2023-05-10T22:50:00;96780.0;;;
68446;BMP280;35789;48.414;12.768;2023-05-10T22:55:00;96780.0;;;
68446;BMP280;35789;48.414;12.768;2023-05-10T23:00:01;96780.0;;;
68446;BMP280;35789;48.414;12.768;2023-05-10T23:05:00;96790.0;;;
68446;BMP280;35789;48.414;12.768;2023-05-10T23:10:00;96780.0;;;
68446;BMP280;35789;48.414;12.768;2023-05-10T23:15:00;96780.0;;;
68446;BMP280;35789;48.414;12.768;2023-05-10T23:20:00;96780.0;;;
68446;BMP280;35789;48.414;12.768;2023-05-10T23:25:00;96790.0;;;
68446;BMP280;35789;48.414;12.768;2023-05-10T23:30:00;96790.0;;;
68446;BMP280;35789;48.414;12.768;2023-05-10T23:35:00;96790.0;;;
68446;BMP280;35789;48.414;12.768;2023-05-10T23:45:00;96790.0;;;
68446;BMP280;35789;48.414;12.768;2023-05-10T23:50:00;96790.0;;;
68446;BMP280;35789;48.414;12.768;2023-05-10T23:55:00;96780.0;;;
